sensor_id;sensor_type;location;lat;lon;timestamp;P1;durP1;ratioP1;P2;durP2;ratioP2
17171;SDS011;8701;50.150;8.756;2024-03-08T00:00:05;17.57;;;10.83;;
17171;SDS011;8701;50.150;8.756;2024-03-08T00:04:13;17.90;;;9.57;;
17171;SDS011;8701;50.150;8.756;2024-03-08T00:08:18;20.53;;;10.60;;
17171;SDS011;8701;50.150;8.756;2024-03-08T00:12:21;21.10;;;10.13;;
17171;SDS011;8701;50.150;8.756;2024-03-08T00:16:23;15.77;;;10.07;;
17171;SDS011;8701;50.150;8.756;2024-03-08T00:20:25;18.07;;;10.73;;
17171;SDS011;8701;50.150;8.756;2024-03-08T00:24:29;16.50;;;10.13;;
17171;SDS011;8701;50.150;8.756;2024-03-08T00:28:32;16.50;;;10.60;;
17171;SDS011;8701;50.150;8.756;2024-03-08T00:32:35;15.80;;;9.40;;
17171;SDS011;8701;50.150;8.756;2024-03-08T00:36:38;17.67;;;10.03;;
17171;SDS011;8701;50.150;8.756;2024-03-08T00:40:42;17.40;;;11.30;;
17171;SDS011;8701;50.150;8.756;2024-03-08T00:44:44;15.53;;;10.17;;
17171;SDS011;8701;50.150;8.756;2024-03-08T00:48:46;16.30;;;10.73;;
17171;SDS011;8701;50.150;8.756;2024-03-08T00:52:49;21.33;;;10.67;;
17171;SDS011;8701;50.150;8.756;2024-03-08T00:56:52;17.70;;;9.93;;
17171;SDS011;8701;50.150;8.756;2024-03-08T01:00:55;20.00;;;10.57;;
17171;SDS011;8701;50.150;8.756;2024-03-08T01:04:58;18.77;;;10.23;;
17171;SDS011;8701;50.150;8.756;2024-03-08T01:09:00;15.13;;;10.03;;
17171;SDS011;8701;50.150;8.756;2024-03-08T01:13:04;17.37;;;10.23;;
17171;SDS011;8701;50.150;8.756;2024-03-08T01:17:06;19.40;;;10.50;;
17171;SDS011;8701;50.150;8.756;2024-03-08T01:21:10;15.73;;;9.20;;
17171;SDS011;8701;50.150;8.756;2024-03-08T01:25:12;17.53;;;9.23;;
17171;SDS011;8701;50.150;8.756;2024-03-08T01:29:16;19.27;;;10.93;;
17171;SDS011;8701;50.150;8.756;2024-03-08T01:33:18;19.30;;;10.10;;
17171;SDS011;8701;50.150;8.756;2024-03-08T01:37:23;17.90;;;10.37;;
17171;SDS011;8701;50.150;8.756;2024-03-08T01:41:25;18.33;;;11.37;;
17171;SDS011;8701;50.150;8.756;2024-03-08T01:45:31;16.27;;;9.87;;
17171;SDS011;8701;50.150;8.756;2024-03-08T01:49:35;20.73;;;11.67;;
17171;SDS011;8701;50.150;8.756;2024-03-08T01:53:37;24.20;;;13.90;;
17171;SDS011;8701;50.150;8.756;2024-03-08T01:57:40;15.70;;;9.50;;
17171;SDS011;8701;50.150;8.756;2024-03-08T02:01:43;17.07;;;10.37;;
17171;SDS011;8701;50.150;8.756;2024-03-08T02:05:46;22.40;;;11.23;;
17171;SDS011;8701;50.150;8.756;2024-03-08T02:09:48;20.70;;;10.63;;
17171;SDS011;8701;50.150;8.756;2024-03-08T02:13:51;18.30;;;10.13;;
17171;SDS011;8701;50.150;8.756;2024-03-08T02:17:55;18.53;;;9.90;;
17171;SDS011;8701;50.150;8.756;2024-03-08T02:21:59;17.37;;;10.40;;
17171;SDS011;8701;50.150;8.756;2024-03-08T02:26:04;19.53;;;9.90;;
17171;SDS011;8701;50.150;8.756;2024-03-08T02:30:08;16.43;;;10.13;;
17171;SDS011;8701;50.150;8.756;2024-03-08T02:34:13;19.23;;;11.83;;
17171;SDS011;8701;50.150;8.756;2024-03-08T02:38:17;19.00;;;10.70;;
17171;SDS011;8701;50.150;8.756;2024-03-08T02:42:20;17.40;;;11.03;;
17171;SDS011;8701;50.150;8.756;2024-03-08T02:46:23;19.00;;;11.50;;
17171;SDS011;8701;50.150;8.756;2024-03-08T02:50:25;19.00;;;11.13;;
17171;SDS011;8701;50.150;8.756;2024-03-08T02:54:29;17.20;;;10.67;;
17171;SDS011;8701;50.150;8.756;2024-03-08T02:58:31;20.10;;;12.00;;
17171;SDS011;8701;50.150;8.756;2024-03-08T03:02:33;19.97;;;11.40;;
17171;SDS011;8701;50.150;8.756;2024-03-08T03:06:36;20.83;;;12.17;;
17171;SDS011;8701;50.150;8.756;2024-03-08T03:10:41;16.93;;;11.63;;
17171;SDS011;8701;50.150;8.756;2024-03-08T03:14:43;22.47;;;12.37;;
17171;SDS011;8701;50.150;8.756;2024-03-08T03:18:45;19.20;;;11.27;;
17171;SDS011;8701;50.150;8.756;2024-03-08T03:22:48;16.33;;;9.77;;
17171;SDS011;8701;50.150;8.756;2024-03-08T03:26:54;21.63;;;11.67;;
17171;SDS011;8701;50.150;8.756;2024-03-08T03:30:56;18.10;;;10.50;;
17171;SDS011;8701;50.150;8.756;2024-03-08T03:34:59;21.70;;;11.70;;
17171;SDS011;8701;50.150;8.756;2024-03-08T03:39:05;15.90;;;9.80;;
17171;SDS011;8701;50.150;8.756;2024-03-08T03:43:12;21.63;;;11.37;;
17171;SDS011;8701;50.150;8.756;2024-03-08T03:47:15;19.37;;;11.40;;
17171;SDS011;8701;50.150;8.756;2024-03-08T03:51:17;17.90;;;10.83;;
17171;SDS011;8701;50.150;8.756;2024-03-08T03:55:20;22.77;;;11.53;;
17171;SDS011;8701;50.150;8.756;2024-03-08T03:59:24;19.60;;;11.80;;
17171;SDS011;8701;50.150;8.756;2024-03-08T04:03:26;24.07;;;12.50;;
17171;SDS011;8701;50.150;8.756;2024-03-08T04:07:28;22.37;;;11.97;;
17171;SDS011;8701;50.150;8.756;2024-03-08T04:11:31;24.63;;;12.40;;
17171;SDS011;8701;50.150;8.756;2024-03-08T04:15:34;20.13;;;12.63;;
17171;SDS011;8701;50.150;8.756;2024-03-08T04:19:38;17.93;;;10.93;;
17171;SDS011;8701;50.150;8.756;2024-03-08T04:23:41;19.47;;;12.57;;
17171;SDS011;8701;50.150;8.756;2024-03-08T04:27:45;19.90;;;11.50;;
17171;SDS011;8701;50.150;8.756;2024-03-08T04:31:51;18.17;;;10.70;;
17171;SDS011;8701;50.150;8.756;2024-03-08T04:35:54;16.70;;;10.60;;
17171;SDS011;8701;50.150;8.756;2024-03-08T04:39:57;18.17;;;10.97;;
17171;SDS011;8701;50.150;8.756;2024-03-08T04:43:59;18.30;;;11.50;;
17171;SDS011;8701;50.150;8.756;2024-03-08T04:48:06;19.40;;;11.40;;
17171;SDS011;8701;50.150;8.756;2024-03-08T04:52:10;21.63;;;12.20;;
17171;SDS011;8701;50.150;8.756;2024-03-08T04:56:12;17.20;;;10.57;;
17171;SDS011;8701;50.150;8.756;2024-03-08T05:00:15;20.37;;;12.53;;
17171;SDS011;8701;50.150;8.756;2024-03-08T05:04:19;23.83;;;12.80;;
17171;SDS011;8701;50.150;8.756;2024-03-08T05:08:22;22.70;;;12.27;;
17171;SDS011;8701;50.150;8.756;2024-03-08T05:12:24;22.20;;;11.60;;
17171;SDS011;8701;50.150;8.756;2024-03-08T05:16:27;22.23;;;12.40;;
17171;SDS011;8701;50.150;8.756;2024-03-08T05:20:30;21.33;;;12.43;;
17171;SDS011;8701;50.150;8.756;2024-03-08T05:24:33;20.73;;;11.83;;
17171;SDS011;8701;50.150;8.756;2024-03-08T05:28:35;21.10;;;11.80;;
17171;SDS011;8701;50.150;8.756;2024-03-08T05:32:37;21.37;;;13.07;;
17171;SDS011;8701;50.150;8.756;2024-03-08T05:36:41;24.20;;;13.70;;
17171;SDS011;8701;50.150;8.756;2024-03-08T05:40:44;22.03;;;12.50;;
17171;SDS011;8701;50.150;8.756;2024-03-08T05:44:47;20.70;;;11.60;;
17171;SDS011;8701;50.150;8.756;2024-03-08T05:48:50;21.40;;;11.70;;
17171;SDS011;8701;50.150;8.756;2024-03-08T05:52:53;22.57;;;12.67;;
17171;SDS011;8701;50.150;8.756;2024-03-08T05:56:55;19.93;;;11.90;;
17171;SDS011;8701;50.150;8.756;2024-03-08T06:00:59;20.83;;;12.50;;
17171;SDS011;8701;50.150;8.756;2024-03-08T06:05:01;19.87;;;11.60;;
17171;SDS011;8701;50.150;8.756;2024-03-08T06:09:05;24.60;;;13.10;;
17171;SDS011;8701;50.150;8.756;2024-03-08T06:13:17;23.10;;;13.30;;
17171;SDS011;8701;50.150;8.756;2024-03-08T06:17:19;23.40;;;11.80;;
17171;SDS011;8701;50.150;8.756;2024-03-08T06:21:26;23.37;;;12.63;;
17171;SDS011;8701;50.150;8.756;2024-03-08T06:25:29;21.07;;;11.77;;
17171;SDS011;8701;50.150;8.756;2024-03-08T06:29:31;19.10;;;11.37;;
17171;SDS011;8701;50.150;8.756;2024-03-08T06:33:34;19.23;;;12.00;;
17171;SDS011;8701;50.150;8.756;2024-03-08T06:37:36;23.57;;;11.70;;
17171;SDS011;8701;50.150;8.756;2024-03-08T06:41:41;22.43;;;11.70;;
17171;SDS011;8701;50.150;8.756;2024-03-08T06:45:45;19.87;;;12.17;;
17171;SDS011;8701;50.150;8.756;2024-03-08T06:49:49;23.20;;;13.13;;
17171;SDS011;8701;50.150;8.756;2024-03-08T06:53:52;27.47;;;13.60;;
17171;SDS011;8701;50.150;8.756;2024-03-08T06:57:56;17.87;;;11.20;;
17171;SDS011;8701;50.150;8.756;2024-03-08T07:01:58;21.20;;;12.77;;
17171;SDS011;8701;50.150;8.756;2024-03-08T07:06:01;22.27;;;12.20;;
17171;SDS011;8701;50.150;8.756;2024-03-08T07:10:08;21.00;;;11.97;;
17171;SDS011;8701;50.150;8.756;2024-03-08T07:14:12;20.27;;;12.63;;
17171;SDS011;8701;50.150;8.756;2024-03-08T07:18:15;20.20;;;11.40;;
17171;SDS011;8701;50.150;8.756;2024-03-08T07:22:18;20.50;;;12.30;;
17171;SDS011;8701;50.150;8.756;2024-03-08T07:26:21;23.60;;;13.07;;
17171;SDS011;8701;50.150;8.756;2024-03-08T07:30:25;20.17;;;12.20;;
17171;SDS011;8701;50.150;8.756;2024-03-08T07:34:46;20.00;;;11.80;;
17171;SDS011;8701;50.150;8.756;2024-03-08T07:38:51;19.87;;;12.00;;
17171;SDS011;8701;50.150;8.756;2024-03-08T07:42:54;21.70;;;11.50;;
17171;SDS011;8701;50.150;8.756;2024-03-08T07:46:58;21.33;;;11.70;;
17171;SDS011;8701;50.150;8.756;2024-03-08T07:51:00;19.90;;;12.40;;
17171;SDS011;8701;50.150;8.756;2024-03-08T07:55:03;21.47;;;12.17;;
17171;SDS011;8701;50.150;8.756;2024-03-08T07:59:06;20.07;;;12.20;;
17171;SDS011;8701;50.150;8.756;2024-03-08T08:03:10;17.63;;;11.97;;
17171;SDS011;8701;50.150;8.756;2024-03-08T08:07:13;19.30;;;12.37;;
17171;SDS011;8701;50.150;8.756;2024-03-08T08:11:15;20.83;;;13.30;;
17171;SDS011;8701;50.150;8.756;2024-03-08T08:15:17;22.23;;;13.27;;
17171;SDS011;8701;50.150;8.756;2024-03-08T08:19:22;19.33;;;12.70;;
17171;SDS011;8701;50.150;8.756;2024-03-08T08:23:27;20.30;;;12.97;;
17171;SDS011;8701;50.150;8.756;2024-03-08T08:27:30;24.70;;;15.17;;
17171;SDS011;8701;50.150;8.756;2024-03-08T08:31:32;19.93;;;13.70;;
17171;SDS011;8701;50.150;8.756;2024-03-08T08:35:36;19.60;;;13.77;;
17171;SDS011;8701;50.150;8.756;2024-03-08T08:39:38;20.13;;;14.33;;
17171;SDS011;8701;50.150;8.756;2024-03-08T08:43:41;18.73;;;12.27;;
17171;SDS011;8701;50.150;8.756;2024-03-08T08:47:44;17.83;;;13.37;;
17171;SDS011;8701;50.150;8.756;2024-03-08T08:51:50;18.13;;;13.23;;
17171;SDS011;8701;50.150;8.756;2024-03-08T08:55:52;20.03;;;14.60;;
17171;SDS011;8701;50.150;8.756;2024-03-08T08:59:54;18.60;;;14.47;;
17171;SDS011;8701;50.150;8.756;2024-03-08T09:03:58;19.73;;;14.07;;
17171;SDS011;8701;50.150;8.756;2024-03-08T09:08:02;18.87;;;13.83;;
17171;SDS011;8701;50.150;8.756;2024-03-08T09:12:05;19.80;;;13.87;;
17171;SDS011;8701;50.150;8.756;2024-03-08T09:16:08;20.60;;;14.23;;
17171;SDS011;8701;50.150;8.756;2024-03-08T09:20:11;16.53;;;12.63;;
17171;SDS011;8701;50.150;8.756;2024-03-08T09:24:16;15.67;;;11.87;;
17171;SDS011;8701;50.150;8.756;2024-03-08T09:28:19;21.07;;;11.47;;
17171;SDS011;8701;50.150;8.756;2024-03-08T09:32:21;24.70;;;12.80;;
17171;SDS011;8701;50.150;8.756;2024-03-08T09:36:23;18.67;;;12.53;;
17171;SDS011;8701;50.150;8.756;2024-03-08T09:40:27;16.07;;;9.93;;
17171;SDS011;8701;50.150;8.756;2024-03-08T09:44:30;15.40;;;10.40;;
17171;SDS011;8701;50.150;8.756;2024-03-08T09:48:32;18.17;;;11.27;;
17171;SDS011;8701;50.150;8.756;2024-03-08T09:52:35;17.77;;;11.30;;
17171;SDS011;8701;50.150;8.756;2024-03-08T09:56:39;14.93;;;10.20;;
17171;SDS011;8701;50.150;8.756;2024-03-08T10:00:42;14.40;;;9.60;;
17171;SDS011;8701;50.150;8.756;2024-03-08T10:04:45;12.03;;;8.90;;
17171;SDS011;8701;50.150;8.756;2024-03-08T10:08:48;15.07;;;10.13;;
17171;SDS011;8701;50.150;8.756;2024-03-08T10:12:53;17.03;;;10.87;;
17171;SDS011;8701;50.150;8.756;2024-03-08T10:16:57;15.83;;;10.03;;
17171;SDS011;8701;50.150;8.756;2024-03-08T10:21:05;14.43;;;9.63;;
17171;SDS011;8701;50.150;8.756;2024-03-08T10:25:11;11.23;;;8.30;;
17171;SDS011;8701;50.150;8.756;2024-03-08T10:29:14;15.23;;;10.77;;
17171;SDS011;8701;50.150;8.756;2024-03-08T10:33:18;22.13;;;10.47;;
17171;SDS011;8701;50.150;8.756;2024-03-08T10:37:21;14.30;;;9.37;;
17171;SDS011;8701;50.150;8.756;2024-03-08T10:41:28;16.70;;;9.80;;
17171;SDS011;8701;50.150;8.756;2024-03-08T10:45:35;19.30;;;9.63;;
17171;SDS011;8701;50.150;8.756;2024-03-08T10:49:39;12.80;;;9.00;;
17171;SDS011;8701;50.150;8.756;2024-03-08T10:53:49;14.10;;;10.30;;
17171;SDS011;8701;50.150;8.756;2024-03-08T10:57:52;14.93;;;10.10;;
17171;SDS011;8701;50.150;8.756;2024-03-08T11:01:56;13.00;;;9.20;;
17171;SDS011;8701;50.150;8.756;2024-03-08T11:05:58;14.30;;;9.90;;
17171;SDS011;8701;50.150;8.756;2024-03-08T11:10:02;14.70;;;10.27;;
17171;SDS011;8701;50.150;8.756;2024-03-08T11:14:06;11.23;;;8.60;;
17171;SDS011;8701;50.150;8.756;2024-03-08T11:18:50;10.10;;;8.17;;
17171;SDS011;8701;50.150;8.756;2024-03-08T11:22:59;8.80;;;7.67;;
17171;SDS011;8701;50.150;8.756;2024-03-08T11:27:05;10.97;;;8.90;;
17171;SDS011;8701;50.150;8.756;2024-03-08T11:35:35;9.63;;;8.63;;
17171;SDS011;8701;50.150;8.756;2024-03-08T11:39:38;10.63;;;8.50;;
17171;SDS011;8701;50.150;8.756;2024-03-08T11:43:41;11.30;;;9.30;;
17171;SDS011;8701;50.150;8.756;2024-03-08T11:47:43;11.37;;;9.13;;
17171;SDS011;8701;50.150;8.756;2024-03-08T11:51:50;11.30;;;9.33;;
17171;SDS011;8701;50.150;8.756;2024-03-08T11:55:54;12.87;;;10.20;;
17171;SDS011;8701;50.150;8.756;2024-03-08T11:59:56;13.63;;;9.30;;
17171;SDS011;8701;50.150;8.756;2024-03-08T12:04:11;10.70;;;8.77;;
17171;SDS011;8701;50.150;8.756;2024-03-08T12:08:15;11.30;;;9.40;;
17171;SDS011;8701;50.150;8.756;2024-03-08T12:12:17;12.03;;;9.93;;
17171;SDS011;8701;50.150;8.756;2024-03-08T12:16:20;12.97;;;10.20;;
17171;SDS011;8701;50.150;8.756;2024-03-08T12:20:23;10.70;;;9.40;;
17171;SDS011;8701;50.150;8.756;2024-03-08T12:24:29;12.47;;;10.00;;
17171;SDS011;8701;50.150;8.756;2024-03-08T12:28:31;13.00;;;10.00;;
17171;SDS011;8701;50.150;8.756;2024-03-08T12:32:33;13.90;;;10.77;;
17171;SDS011;8701;50.150;8.756;2024-03-08T12:36:36;15.03;;;10.70;;
17171;SDS011;8701;50.150;8.756;2024-03-08T12:40:40;13.20;;;10.20;;
17171;SDS011;8701;50.150;8.756;2024-03-08T12:44:42;14.10;;;10.10;;
17171;SDS011;8701;50.150;8.756;2024-03-08T12:48:47;13.60;;;10.30;;
17171;SDS011;8701;50.150;8.756;2024-03-08T12:52:49;13.83;;;10.10;;
17171;SDS011;8701;50.150;8.756;2024-03-08T12:56:54;10.83;;;9.20;;
17171;SDS011;8701;50.150;8.756;2024-03-08T13:00:56;13.47;;;10.43;;
17171;SDS011;8701;50.150;8.756;2024-03-08T13:05:00;10.93;;;9.67;;
17171;SDS011;8701;50.150;8.756;2024-03-08T13:09:06;12.60;;;10.20;;
17171;SDS011;8701;50.150;8.756;2024-03-08T13:13:09;12.43;;;10.30;;
17171;SDS011;8701;50.150;8.756;2024-03-08T13:17:12;11.73;;;9.97;;
17171;SDS011;8701;50.150;8.756;2024-03-08T13:21:14;12.73;;;10.33;;
17171;SDS011;8701;50.150;8.756;2024-03-08T13:25:20;14.00;;;10.13;;
17171;SDS011;8701;50.150;8.756;2024-03-08T13:29:25;13.53;;;11.10;;
17171;SDS011;8701;50.150;8.756;2024-03-08T13:33:28;13.20;;;11.07;;
17171;SDS011;8701;50.150;8.756;2024-03-08T13:37:30;14.73;;;11.50;;
17171;SDS011;8701;50.150;8.756;2024-03-08T13:41:34;14.20;;;10.20;;
17171;SDS011;8701;50.150;8.756;2024-03-08T13:45:37;14.90;;;10.97;;
17171;SDS011;8701;50.150;8.756;2024-03-08T13:49:42;14.43;;;10.50;;
17171;SDS011;8701;50.150;8.756;2024-03-08T13:53:45;12.17;;;9.53;;
17171;SDS011;8701;50.150;8.756;2024-03-08T13:57:47;15.60;;;10.30;;
17171;SDS011;8701;50.150;8.756;2024-03-08T14:01:51;11.60;;;9.63;;
17171;SDS011;8701;50.150;8.756;2024-03-08T14:05:53;8.40;;;7.40;;
17171;SDS011;8701;50.150;8.756;2024-03-08T14:09:57;12.23;;;9.67;;
17171;SDS011;8701;50.150;8.756;2024-03-08T14:14:00;14.87;;;10.03;;
17171;SDS011;8701;50.150;8.756;2024-03-08T14:18:03;13.53;;;9.33;;
17171;SDS011;8701;50.150;8.756;2024-03-08T14:22:07;14.50;;;10.83;;
17171;SDS011;8701;50.150;8.756;2024-03-08T14:26:11;18.73;;;11.80;;
17171;SDS011;8701;50.150;8.756;2024-03-08T14:30:13;12.47;;;9.00;;
17171;SDS011;8701;50.150;8.756;2024-03-08T14:34:33;14.47;;;9.70;;
17171;SDS011;8701;50.150;8.756;2024-03-08T14:38:36;13.20;;;10.10;;
17171;SDS011;8701;50.150;8.756;2024-03-08T14:42:41;14.80;;;11.00;;
17171;SDS011;8701;50.150;8.756;2024-03-08T14:46:44;13.83;;;9.93;;
17171;SDS011;8701;50.150;8.756;2024-03-08T14:50:47;11.00;;;8.50;;
17171;SDS011;8701;50.150;8.756;2024-03-08T14:54:51;14.50;;;10.60;;
17171;SDS011;8701;50.150;8.756;2024-03-08T14:58:53;12.50;;;9.90;;
17171;SDS011;8701;50.150;8.756;2024-03-08T15:02:59;13.23;;;9.83;;
17171;SDS011;8701;50.150;8.756;2024-03-08T15:07:04;15.67;;;10.50;;
17171;SDS011;8701;50.150;8.756;2024-03-08T15:11:06;14.03;;;9.60;;
17171;SDS011;8701;50.150;8.756;2024-03-08T15:15:09;13.43;;;9.73;;
17171;SDS011;8701;50.150;8.756;2024-03-08T15:19:14;17.20;;;10.73;;
17171;SDS011;8701;50.150;8.756;2024-03-08T15:23:19;14.00;;;9.50;;
17171;SDS011;8701;50.150;8.756;2024-03-08T15:27:22;15.13;;;8.97;;
17171;SDS011;8701;50.150;8.756;2024-03-08T15:31:24;14.10;;;9.40;;
17171;SDS011;8701;50.150;8.756;2024-03-08T15:35:27;13.90;;;9.27;;
17171;SDS011;8701;50.150;8.756;2024-03-08T15:39:33;15.57;;;9.80;;
17171;SDS011;8701;50.150;8.756;2024-03-08T15:43:35;15.07;;;8.90;;
17171;SDS011;8701;50.150;8.756;2024-03-08T15:47:38;13.47;;;8.27;;
17171;SDS011;8701;50.150;8.756;2024-03-08T15:51:41;12.13;;;8.10;;
17171;SDS011;8701;50.150;8.756;2024-03-08T15:55:44;13.67;;;8.67;;
17171;SDS011;8701;50.150;8.756;2024-03-08T15:59:47;16.20;;;9.20;;
17171;SDS011;8701;50.150;8.756;2024-03-08T16:03:49;12.40;;;7.97;;
17171;SDS011;8701;50.150;8.756;2024-03-08T16:07:51;9.00;;;7.03;;
17171;SDS011;8701;50.150;8.756;2024-03-08T16:11:57;10.90;;;7.70;;
17171;SDS011;8701;50.150;8.756;2024-03-08T16:16:00;12.30;;;7.90;;
17171;SDS011;8701;50.150;8.756;2024-03-08T16:20:04;11.23;;;6.87;;
17171;SDS011;8701;50.150;8.756;2024-03-08T16:24:11;13.17;;;7.97;;
17171;SDS011;8701;50.150;8.756;2024-03-08T16:28:16;12.27;;;7.67;;
17171;SDS011;8701;50.150;8.756;2024-03-08T16:32:19;12.67;;;7.10;;
17171;SDS011;8701;50.150;8.756;2024-03-08T16:36:21;11.33;;;7.13;;
17171;SDS011;8701;50.150;8.756;2024-03-08T16:40:23;8.20;;;5.63;;
17171;SDS011;8701;50.150;8.756;2024-03-08T16:44:27;9.10;;;6.37;;
17171;SDS011;8701;50.150;8.756;2024-03-08T16:48:29;13.47;;;6.57;;
17171;SDS011;8701;50.150;8.756;2024-03-08T16:52:31;14.63;;;6.67;;
17171;SDS011;8701;50.150;8.756;2024-03-08T16:56:34;11.57;;;6.73;;
17171;SDS011;8701;50.150;8.756;2024-03-08T17:00:39;13.23;;;6.43;;
17171;SDS011;8701;50.150;8.756;2024-03-08T17:04:42;10.03;;;6.13;;
17171;SDS011;8701;50.150;8.756;2024-03-08T17:08:44;8.40;;;5.70;;
17171;SDS011;8701;50.150;8.756;2024-03-08T17:12:47;10.73;;;6.63;;
17171;SDS011;8701;50.150;8.756;2024-03-08T17:16:51;11.10;;;6.83;;
17171;SDS011;8701;50.150;8.756;2024-03-08T17:20:53;16.50;;;7.70;;
17171;SDS011;8701;50.150;8.756;2024-03-08T17:24:57;10.57;;;6.83;;
17171;SDS011;8701;50.150;8.756;2024-03-08T17:28:59;11.20;;;5.90;;
17171;SDS011;8701;50.150;8.756;2024-03-08T17:33:04;12.47;;;7.20;;
17171;SDS011;8701;50.150;8.756;2024-03-08T17:37:10;13.90;;;8.37;;
17171;SDS011;8701;50.150;8.756;2024-03-08T17:41:15;11.20;;;7.40;;
17171;SDS011;8701;50.150;8.756;2024-03-08T17:45:23;12.90;;;6.90;;
17171;SDS011;8701;50.150;8.756;2024-03-08T17:49:29;11.47;;;7.33;;
17171;SDS011;8701;50.150;8.756;2024-03-08T17:53:31;9.17;;;6.00;;
17171;SDS011;8701;50.150;8.756;2024-03-08T17:57:35;14.03;;;7.23;;
17171;SDS011;8701;50.150;8.756;2024-03-08T18:01:40;11.20;;;6.60;;
17171;SDS011;8701;50.150;8.756;2024-03-08T18:05:45;14.13;;;6.80;;
17171;SDS011;8701;50.150;8.756;2024-03-08T18:09:48;12.37;;;6.67;;
17171;SDS011;8701;50.150;8.756;2024-03-08T18:13:50;11.67;;;7.77;;
17171;SDS011;8701;50.150;8.756;2024-03-08T18:17:53;10.87;;;7.23;;
17171;SDS011;8701;50.150;8.756;2024-03-08T18:21:57;11.90;;;7.30;;
17171;SDS011;8701;50.150;8.756;2024-03-08T18:26:00;12.03;;;7.30;;
17171;SDS011;8701;50.150;8.756;2024-03-08T18:30:03;14.67;;;8.00;;
17171;SDS011;8701;50.150;8.756;2024-03-08T18:34:06;14.20;;;7.40;;
17171;SDS011;8701;50.150;8.756;2024-03-08T18:38:10;19.73;;;8.87;;
17171;SDS011;8701;50.150;8.756;2024-03-08T18:42:12;10.93;;;7.20;;
17171;SDS011;8701;50.150;8.756;2024-03-08T18:46:14;13.57;;;8.67;;
17171;SDS011;8701;50.150;8.756;2024-03-08T18:50:18;11.27;;;7.03;;
17171;SDS011;8701;50.150;8.756;2024-03-08T18:54:22;12.03;;;7.63;;
17171;SDS011;8701;50.150;8.756;2024-03-08T18:58:27;14.20;;;7.90;;
17171;SDS011;8701;50.150;8.756;2024-03-08T19:02:32;12.37;;;7.50;;
17171;SDS011;8701;50.150;8.756;2024-03-08T19:06:35;13.53;;;7.87;;
17171;SDS011;8701;50.150;8.756;2024-03-08T19:10:38;11.80;;;8.57;;
17171;SDS011;8701;50.150;8.756;2024-03-08T19:14:41;13.10;;;8.50;;
17171;SDS011;8701;50.150;8.756;2024-03-08T19:18:43;11.43;;;7.20;;
17171;SDS011;8701;50.150;8.756;2024-03-08T19:22:45;12.30;;;7.73;;
17171;SDS011;8701;50.150;8.756;2024-03-08T19:26:50;14.77;;;8.10;;
17171;SDS011;8701;50.150;8.756;2024-03-08T19:30:52;12.33;;;7.40;;
17171;SDS011;8701;50.150;8.756;2024-03-08T19:34:55;12.43;;;7.83;;
17171;SDS011;8701;50.150;8.756;2024-03-08T19:38:57;12.97;;;7.67;;
17171;SDS011;8701;50.150;8.756;2024-03-08T19:43:02;12.30;;;7.10;;
17171;SDS011;8701;50.150;8.756;2024-03-08T19:47:07;11.07;;;6.90;;
17171;SDS011;8701;50.150;8.756;2024-03-08T19:51:12;11.80;;;7.23;;
17171;SDS011;8701;50.150;8.756;2024-03-08T19:55:18;9.90;;;6.93;;
17171;SDS011;8701;50.150;8.756;2024-03-08T19:59:23;10.20;;;6.70;;
17171;SDS011;8701;50.150;8.756;2024-03-08T20:03:25;9.13;;;6.77;;
17171;SDS011;8701;50.150;8.756;2024-03-08T20:07:29;10.60;;;6.57;;
17171;SDS011;8701;50.150;8.756;2024-03-08T20:11:32;14.63;;;7.87;;
17171;SDS011;8701;50.150;8.756;2024-03-08T20:15:36;9.00;;;6.73;;
17171;SDS011;8701;50.150;8.756;2024-03-08T20:19:42;8.53;;;6.37;;
17171;SDS011;8701;50.150;8.756;2024-03-08T20:23:46;11.70;;;7.07;;
17171;SDS011;8701;50.150;8.756;2024-03-08T20:27:50;12.30;;;8.47;;
17171;SDS011;8701;50.150;8.756;2024-03-08T20:31:55;16.90;;;7.60;;
17171;SDS011;8701;50.150;8.756;2024-03-08T20:35:57;12.10;;;7.20;;
17171;SDS011;8701;50.150;8.756;2024-03-08T20:39:59;13.33;;;7.93;;
17171;SDS011;8701;50.150;8.756;2024-03-08T20:44:02;11.97;;;7.93;;
17171;SDS011;8701;50.150;8.756;2024-03-08T20:48:06;12.60;;;7.60;;
17171;SDS011;8701;50.150;8.756;2024-03-08T20:52:09;12.03;;;7.00;;
17171;SDS011;8701;50.150;8.756;2024-03-08T20:56:11;11.07;;;6.27;;
17171;SDS011;8701;50.150;8.756;2024-03-08T21:00:16;10.00;;;6.47;;
17171;SDS011;8701;50.150;8.756;2024-03-08T21:04:36;9.80;;;6.53;;
17171;SDS011;8701;50.150;8.756;2024-03-08T21:08:41;9.27;;;6.03;;
17171;SDS011;8701;50.150;8.756;2024-03-08T21:12:43;13.20;;;7.53;;
17171;SDS011;8701;50.150;8.756;2024-03-08T21:16:52;10.40;;;6.40;;
17171;SDS011;8701;50.150;8.756;2024-03-08T21:20:56;11.67;;;7.43;;
17171;SDS011;8701;50.150;8.756;2024-03-08T21:24:58;9.53;;;6.93;;
17171;SDS011;8701;50.150;8.756;2024-03-08T21:29:00;10.27;;;7.23;;
17171;SDS011;8701;50.150;8.756;2024-03-08T21:33:04;11.00;;;7.23;;
17171;SDS011;8701;50.150;8.756;2024-03-08T21:37:12;10.23;;;6.60;;
17171;SDS011;8701;50.150;8.756;2024-03-08T21:41:15;13.20;;;6.97;;
17171;SDS011;8701;50.150;8.756;2024-03-08T21:45:17;9.10;;;6.60;;
17171;SDS011;8701;50.150;8.756;2024-03-08T21:49:21;12.47;;;7.53;;
17171;SDS011;8701;50.150;8.756;2024-03-08T21:53:24;8.80;;;6.33;;
17171;SDS011;8701;50.150;8.756;2024-03-08T21:57:27;12.27;;;7.40;;
17171;SDS011;8701;50.150;8.756;2024-03-08T22:01:29;12.50;;;7.20;;
17171;SDS011;8701;50.150;8.756;2024-03-08T22:05:32;10.47;;;7.63;;
17171;SDS011;8701;50.150;8.756;2024-03-08T22:09:37;11.23;;;7.30;;
17171;SDS011;8701;50.150;8.756;2024-03-08T22:13:39;10.80;;;7.10;;
17171;SDS011;8701;50.150;8.756;2024-03-08T22:17:42;12.83;;;7.40;;
17171;SDS011;8701;50.150;8.756;2024-03-08T22:21:45;14.90;;;7.20;;
17171;SDS011;8701;50.150;8.756;2024-03-08T22:25:50;11.23;;;7.10;;
17171;SDS011;8701;50.150;8.756;2024-03-08T22:29:52;11.27;;;7.47;;
17171;SDS011;8701;50.150;8.756;2024-03-08T22:33:55;11.03;;;6.50;;
17171;SDS011;8701;50.150;8.756;2024-03-08T22:37:57;10.77;;;6.83;;
17171;SDS011;8701;50.150;8.756;2024-03-08T22:42:02;13.27;;;7.90;;
17171;SDS011;8701;50.150;8.756;2024-03-08T22:46:07;11.23;;;8.00;;
17171;SDS011;8701;50.150;8.756;2024-03-08T22:50:09;12.97;;;7.37;;
17171;SDS011;8701;50.150;8.756;2024-03-08T22:54:13;11.87;;;7.00;;
17171;SDS011;8701;50.150;8.756;2024-03-08T22:58:20;11.20;;;7.83;;
17171;SDS011;8701;50.150;8.756;2024-03-08T23:02:23;12.93;;;8.30;;
17171;SDS011;8701;50.150;8.756;2024-03-08T23:06:25;10.53;;;7.30;;
17171;SDS011;8701;50.150;8.756;2024-03-08T23:10:27;12.00;;;7.70;;
17171;SDS011;8701;50.150;8.756;2024-03-08T23:14:31;12.50;;;8.20;;
17171;SDS011;8701;50.150;8.756;2024-03-08T23:18:33;11.83;;;7.40;;
17171;SDS011;8701;50.150;8.756;2024-03-08T23:22:35;14.73;;;7.93;;
17171;SDS011;8701;50.150;8.756;2024-03-08T23:26:38;10.87;;;7.00;;
17171;SDS011;8701;50.150;8.756;2024-03-08T23:30:43;13.57;;;7.73;;
17171;SDS011;8701;50.150;8.756;2024-03-08T23:34:46;11.70;;;7.27;;
17171;SDS011;8701;50.150;8.756;2024-03-08T23:38:48;14.83;;;7.97;;
17171;SDS011;8701;50.150;8.756;2024-03-08T23:42:51;13.50;;;7.67;;
17171;SDS011;8701;50.150;8.756;2024-03-08T23:46:55;11.00;;;6.70;;
17171;SDS011;8701;50.150;8.756;2024-03-08T23:50:58;14.07;;;8.70;;
17171;SDS011;8701;50.150;8.756;2024-03-08T23:55:01;9.20;;;7.00;;
17171;SDS011;8701;50.150;8.756;2024-03-08T23:59:04;13.70;;;8.33;;
